Language: 


Des rapports , des résumés tant et plus, au choix de chacun....


Données statistiques de la station
Quotidien Rapport Janvier 27, 2017 Unités:  Métrique    Anglais   les deux
« Précédent Jour
Suivant Jour »
Quotidien Hebdomadaire Mensuel Annuel Actuel
  Haut: Bas: Moyen:
Température: 6.8 °C -3.1 °C 2.4 °C
Pt de rosée: 2.2 °C -5.3 °C -1.2 °C
Humidité: 86 % 70 % 77 %
Vitesse du vent: 16.3 km/h 0.0 km/h 7.7 km/h
Rafales: 21.2 km/h - -
Vent:- - SSE
Pression: 1018.2 hPa 1012.1 hPa -
Précipitation: 0.0 mm    
Historical Graphs
 
 
Données statistiques pour Janvier 27, 2017
Heure Température Point de rosée Pression Vent Vitesse du vent Refales Humidité Pluie (taux horaire)
00:02 -1.9 °C -4.6 °C 1016.8 hPa SSE 6.9 km/h 9.3 km/h 82 % 0.0 mm
00:12 -2.1 °C -4.7 °C 1018.2 hPa SSE 6.9 km/h 9.0 km/h 82 % 0.0 mm
00:17 -2.2 °C -4.8 °C 1018.2 hPa SSE 5.5 km/h 6.9 km/h 82 % 0.0 mm
00:22 -2.3 °C -4.8 °C 1016.8 hPa SSE 7.6 km/h 9.0 km/h 83 % 0.0 mm
00:27 -2.3 °C -4.8 °C 1016.8 hPa SE 5.8 km/h 10.5 km/h 83 % 0.0 mm
00:32 -2.3 °C -4.8 °C 1016.8 hPa SE 10.1 km/h 10.5 km/h 83 % 0.0 mm
00:37 -2.2 °C -4.7 °C 1016.8 hPa SSE 5.5 km/h 12.6 km/h 83 % 0.0 mm
00:42 -2.2 °C -4.5 °C 1016.8 hPa SSE 7.6 km/h 14.0 km/h 84 % 0.0 mm
00:47 -2.2 °C -4.5 °C 1016.8 hPa SSE 9.0 km/h 14.0 km/h 84 % 0.0 mm
00:53 -2.2 °C -4.5 °C 1016.1 hPa SE 6.4 km/h 11.1 km/h 84 % 0.0 mm
00:58 -2.2 °C -4.5 °C 1016.1 hPa SSE 5.5 km/h 10.1 km/h 84 % 0.0 mm
01:01 -2.2 °C -4.5 °C 1016.1 hPa South 6.9 km/h 10.1 km/h 84 % 0.0 mm
01:03 -2.3 °C -4.6 °C 1016.1 hPa SSE 6.9 km/h 10.1 km/h 84 % 0.0 mm
01:08 -2.3 °C -4.8 °C 1016.1 hPa ESE 5.0 km/h 9.3 km/h 83 % 0.0 mm
01:13 -2.3 °C -4.8 °C 1016.1 hPa SE 4.7 km/h 6.9 km/h 83 % 0.0 mm
01:18 -2.3 °C -4.8 °C 1016.1 hPa SSE 3.2 km/h 6.9 km/h 83 % 0.0 mm
01:23 -2.4 °C -4.9 °C 1015.1 hPa ESE 4.7 km/h 6.9 km/h 83 % 0.0 mm
01:28 -2.6 °C -5.1 °C 1015.1 hPa ESE 4.3 km/h 6.4 km/h 83 % 0.0 mm
01:33 -2.7 °C -5.1 °C 1015.1 hPa SE 4.3 km/h 6.4 km/h 83 % 0.0 mm
01:38 -2.7 °C -5.1 °C 1014.1 hPa SE 5.5 km/h 6.4 km/h 83 % 0.0 mm
01:43 -2.7 °C -5.0 °C 1014.1 hPa SSE 4.3 km/h 9.7 km/h 84 % 0.0 mm
01:48 -2.7 °C -5.1 °C 1014.1 hPa ESE 4.3 km/h 9.7 km/h 84 % 0.0 mm
01:53 -2.7 °C -5.1 °C 1015.1 hPa Calm   5.5 km/h 84 % 0.0 mm
01:58 -2.8 °C -5.2 °C 1015.1 hPa SSE 4.3 km/h 6.4 km/h 84 % 0.0 mm
02:03 -2.8 °C -5.2 °C 1015.1 hPa ESE 4.7 km/h 7.6 km/h 84 % 0.0 mm
02:08 -2.8 °C -5.2 °C 1015.1 hPa ENE 4.3 km/h 7.6 km/h 84 % 0.0 mm
02:13 -2.9 °C -5.3 °C 1015.1 hPa SSE 4.0 km/h 5.8 km/h 84 % 0.0 mm
02:18 -3.1 °C -5.3 °C 1015.1 hPa SSE 4.3 km/h 10.5 km/h 84 % 0.0 mm
02:23 -2.8 °C -5.0 °C 1015.1 hPa SSE 10.5 km/h 13.0 km/h 85 % 0.0 mm
02:29 -2.7 °C -4.9 °C 1015.1 hPa SSE 11.9 km/h 16.3 km/h 85 % 0.0 mm
02:34 -2.7 °C -4.7 °C 1015.1 hPa SSE 4.3 km/h 16.3 km/h 86 % 0.0 mm
02:39 -2.6 °C -4.6 °C 1015.1 hPa SE 14.0 km/h 15.8 km/h 86 % 0.0 mm
02:44 -2.3 °C -4.4 °C 1015.1 hPa SSE 6.4 km/h 15.8 km/h 86 % 0.0 mm
02:49 -2.3 °C -4.6 °C 1015.1 hPa SE 6.9 km/h 14.0 km/h 85 % 0.0 mm
02:54 -2.3 °C -4.4 °C 1014.1 hPa SSE 2.6 km/h 16.3 km/h 85 % 0.0 mm
02:59 -2.3 °C -4.4 °C 1014.1 hPa South 9.7 km/h 16.3 km/h 85 % 0.0 mm
03:04 -2.3 °C -4.4 °C 1014.1 hPa SSE 12.2 km/h 16.9 km/h 85 % 0.0 mm
03:09 -2.3 °C -4.4 °C 1015.1 hPa SE 10.5 km/h 14.0 km/h 85 % 0.0 mm
03:14 -2.1 °C -4.2 °C 1015.1 hPa ESE 11.9 km/h 15.8 km/h 85 % 0.0 mm
03:19 -1.9 °C -4.2 °C 1015.1 hPa SE 10.5 km/h 16.6 km/h 85 % 0.0 mm
03:24 -1.9 °C -4.2 °C 1015.1 hPa South 9.3 km/h 16.6 km/h 84 % 0.0 mm
03:25 -1.9 °C -4.2 °C 1015.1 hPa South 11.6 km/h 16.6 km/h 84 % 0.0 mm
03:30 -1.8 °C -4.1 °C 1015.1 hPa South 8.7 km/h 16.9 km/h 84 % 0.0 mm
03:35 -1.8 °C -4.1 °C 1015.1 hPa SE 10.1 km/h 16.9 km/h 84 % 0.0 mm
03:40 -1.8 °C -4.3 °C 1015.1 hPa SSE 10.1 km/h 14.0 km/h 83 % 0.0 mm
03:45 -1.7 °C -4.2 °C 1015.1 hPa SE 8.7 km/h 10.8 km/h 83 % 0.0 mm
03:50 -1.7 °C -4.2 °C 1015.1 hPa SE 6.9 km/h 12.6 km/h 83 % 0.0 mm
03:55 -1.7 °C -4.3 °C 1014.1 hPa SE 8.7 km/h 12.6 km/h 82 % 0.0 mm
04:00 -1.7 °C -4.3 °C 1014.1 hPa SE 10.5 km/h 12.2 km/h 82 % 0.0 mm
04:05 -1.7 °C -4.3 °C 1014.1 hPa ESE 5.8 km/h 10.5 km/h 82 % 0.0 mm
04:10 -1.7 °C -4.3 °C 1013.1 hPa ESE 7.9 km/h 9.3 km/h 82 % 0.0 mm
04:16 -1.7 °C -4.3 °C 1013.1 hPa SSE 6.9 km/h 10.5 km/h 82 % 0.0 mm
04:21 -1.7 °C -4.3 °C 1013.1 hPa SSE 2.6 km/h 10.5 km/h 82 % 0.0 mm
04:25 -1.7 °C -4.3 °C 1013.1 hPa East 3.5 km/h 7.6 km/h 82 % 0.0 mm
04:30 -1.7 °C -4.3 °C 1013.1 hPa SE 5.8 km/h 7.6 km/h 82 % 0.0 mm
04:35 -1.7 °C -4.3 °C 1013.1 hPa ESE 5.8 km/h 8.7 km/h 82 % 0.0 mm
04:36 -1.7 °C -4.3 °C 1013.1 hPa ESE 5.8 km/h 8.7 km/h 82 % 0.0 mm
04:41 -1.6 °C -4.2 °C 1013.1 hPa SE 7.6 km/h 9.3 km/h 82 % 0.0 mm
04:46 -1.4 °C -4.0 °C 1013.1 hPa SE 5.0 km/h 9.3 km/h 83 % 0.0 mm
04:51 -1.4 °C -4.0 °C 1013.1 hPa East 4.7 km/h 9.7 km/h 83 % 0.0 mm
04:56 -1.4 °C -3.9 °C 1013.1 hPa East 5.8 km/h 9.7 km/h 83 % 0.0 mm
05:01 -1.4 °C -3.9 °C 1013.1 hPa East 4.0 km/h 7.6 km/h 83 % 0.0 mm
05:06 -1.4 °C -3.9 °C 1013.1 hPa ENE 4.0 km/h 6.1 km/h 83 % 0.0 mm
05:11 -1.4 °C -3.9 °C 1013.1 hPa East 7.9 km/h 8.7 km/h 83 % 0.0 mm
05:16 -1.4 °C -3.9 °C 1013.1 hPa NE 9.7 km/h 10.1 km/h 83 % 0.0 mm
05:21 -1.4 °C -4.0 °C 1013.1 hPa NE 7.6 km/h 11.1 km/h 83 % 0.0 mm
05:26 -1.6 °C -4.1 °C 1013.1 hPa ESE 4.0 km/h 11.1 km/h 83 % 0.0 mm
05:31 -1.7 °C -4.2 °C 1013.1 hPa East 6.4 km/h 9.3 km/h 83 % 0.0 mm
05:36 -1.8 °C -4.3 °C 1013.1 hPa East 5.8 km/h 9.3 km/h 83 % 0.0 mm
05:41 -1.8 °C -4.3 °C 1012.1 hPa ESE 8.7 km/h 10.5 km/h 83 % 0.0 mm
05:46 -1.8 °C -4.1 °C 1012.1 hPa East 9.3 km/h 11.1 km/h 84 % 0.0 mm
05:51 -1.7 °C -4.0 °C 1012.1 hPa East 6.4 km/h 12.6 km/h 84 % 0.0 mm
05:56 -1.7 °C -4.0 °C 1014.1 hPa East 9.7 km/h 13.0 km/h 84 % 0.0 mm
06:01 -1.8 °C -4.3 °C 1014.1 hPa ESE 12.2 km/h 15.4 km/h 83 % 0.0 mm
06:06 -1.8 °C -4.3 °C 1014.1 hPa SE 12.2 km/h 15.4 km/h 83 % 0.0 mm
06:11 -1.8 °C -4.3 °C 1013.1 hPa ESE 9.3 km/h 14.8 km/h 83 % 0.0 mm
06:16 -1.9 °C -4.4 °C 1013.1 hPa ESE 5.5 km/h 14.8 km/h 83 % 0.0 mm
06:21 -1.9 °C -4.6 °C 1013.1 hPa ESE 6.1 km/h 10.1 km/h 82 % 0.0 mm
06:26 -1.9 °C -4.4 °C 1013.1 hPa ESE 4.0 km/h 7.9 km/h 83 % 0.0 mm
06:31 -1.9 °C -4.4 °C 1013.1 hPa ESE 5.5 km/h 7.9 km/h 83 % 0.0 mm
06:36 -1.9 °C -4.4 °C 1013.1 hPa ESE 7.6 km/h 7.9 km/h 83 % 0.0 mm
06:47 -1.8 °C -4.3 °C 1012.1 hPa East 6.4 km/h 7.2 km/h 83 % 0.0 mm
06:52 -1.8 °C -4.3 °C 1012.1 hPa ESE 6.9 km/h 7.6 km/h 83 % 0.0 mm
06:57 -1.7 °C -4.0 °C 1012.1 hPa East 5.8 km/h 9.3 km/h 84 % 0.0 mm
07:02 -1.7 °C -4.0 °C 1012.1 hPa SSE 6.1 km/h 9.3 km/h 84 % 0.0 mm
07:07 -1.6 °C -3.9 °C 1012.1 hPa SSE 6.9 km/h 8.7 km/h 84 % 0.0 mm
07:12 -1.4 °C -4.0 °C 1013.1 hPa ESE 3.2 km/h 8.7 km/h 83 % 0.0 mm
07:17 -1.4 °C -3.9 °C 1013.1 hPa SSE 10.5 km/h 10.5 km/h 83 % 0.0 mm
07:22 -1.4 °C -3.9 °C 1013.1 hPa SE 5.5 km/h 10.5 km/h 83 % 0.0 mm
07:27 -1.3 °C -3.8 °C 1012.1 hPa SSE 5.5 km/h 10.1 km/h 83 % 0.0 mm
07:32 -1.3 °C -3.8 °C 1012.1 hPa SSE 5.0 km/h 7.6 km/h 83 % 0.0 mm
07:37 -1.3 °C -3.9 °C 1012.1 hPa SE 4.7 km/h 10.5 km/h 82 % 0.0 mm
07:42 -1.3 °C -3.9 °C 1012.1 hPa SSE 6.1 km/h 10.5 km/h 82 % 0.0 mm
07:47 -1.3 °C -3.9 °C 1012.1 hPa SSE 10.5 km/h 10.5 km/h 82 % 0.0 mm
07:52 -1.3 °C -3.9 °C 1012.1 hPa SSE 4.7 km/h 12.2 km/h 82 % 0.0 mm
07:57 -1.4 °C -4.2 °C 1013.1 hPa SE 5.5 km/h 12.2 km/h 81 % 0.0 mm
08:02 -1.4 °C -4.3 °C 1013.1 hPa ENE 5.5 km/h 9.0 km/h 81 % 0.0 mm
08:07 -1.4 °C -4.3 °C 1013.1 hPa SSE 4.0 km/h 7.9 km/h 81 % 0.0 mm
08:12 -1.6 °C -4.4 °C 1013.1 hPa South 5.0 km/h 7.9 km/h 81 % 0.0 mm
08:17 -1.7 °C -4.5 °C 1013.1 hPa SE 7.9 km/h 7.9 km/h 81 % 0.0 mm
08:22 -1.8 °C -4.6 °C 1013.1 hPa South 4.0 km/h 7.9 km/h 81 % 0.0 mm
08:27 -1.8 °C -4.6 °C 1013.1 hPa Calm   6.9 km/h 81 % 0.0 mm
08:32 -1.9 °C -4.7 °C 1013.1 hPa Calm   5.0 km/h 81 % 0.0 mm
08:37 -1.9 °C -4.7 °C 1013.1 hPa ESE 5.8 km/h 6.9 km/h 81 % 0.0 mm
08:42 -1.9 °C -4.7 °C 1013.1 hPa SE 2.1 km/h 7.6 km/h 81 % 0.0 mm
08:47 -1.9 °C -4.6 °C 1013.1 hPa SSE 4.7 km/h 7.6 km/h 82 % 0.0 mm
08:52 -2.1 °C -4.7 °C 1013.1 hPa SSE 1.4 km/h 5.5 km/h 82 % 0.0 mm
08:57 -2.1 °C -4.7 °C 1013.1 hPa Calm   5.5 km/h 82 % 0.0 mm
09:02 -1.9 °C -4.4 °C 1013.1 hPa Calm   5.5 km/h 83 % 0.0 mm
09:07 -1.9 °C -4.4 °C 1013.1 hPa ESE 2.6 km/h 4.7 km/h 83 % 0.0 mm
09:08 -1.9 °C -4.4 °C 1013.1 hPa SSE 5.0 km/h 5.0 km/h 83 % 0.0 mm
09:13 -1.8 °C -4.3 °C 1013.1 hPa SSE 5.8 km/h 6.9 km/h 83 % 0.0 mm
09:18 -1.7 °C -4.2 °C 1013.1 hPa South 3.2 km/h 6.9 km/h 83 % 0.0 mm
09:23 -1.4 °C -3.8 °C 1013.1 hPa SSE 4.3 km/h 6.9 km/h 84 % 0.0 mm
09:28 -1.4 °C -3.7 °C 1013.1 hPa SSE 3.2 km/h 7.9 km/h 84 % 0.0 mm
09:33 -1.2 °C -3.6 °C 1013.1 hPa South 2.1 km/h 7.9 km/h 84 % 0.0 mm
09:38 -1.0 °C -3.3 °C 1013.1 hPa Calm   5.5 km/h 84 % 0.0 mm
09:43 -0.9 °C -3.2 °C 1013.1 hPa SSE 4.3 km/h 5.0 km/h 84 % 0.0 mm
09:48 -0.6 °C -2.9 °C 1013.1 hPa Calm   5.0 km/h 84 % 0.0 mm
09:53 -0.3 °C -2.7 °C 1014.1 hPa SSE 4.3 km/h 5.5 km/h 84 % 0.0 mm
09:58 0.0 °C -2.4 °C 1014.1 hPa SSE 2.6 km/h 5.5 km/h 84 % 0.0 mm
10:02 0.2 °C -2.2 °C 1014.1 hPa South 4.0 km/h 5.5 km/h 84 % 0.0 mm
10:07 0.4 °C -2.0 °C 1013.1 hPa Calm   8.7 km/h 84 % 0.0 mm
10:12 0.6 °C -1.8 °C 1013.1 hPa SSE 5.0 km/h 8.7 km/h 84 % 0.0 mm
10:17 0.8 °C -1.6 °C 1013.1 hPa South 4.0 km/h 9.0 km/h 84 % 0.0 mm
10:22 0.9 °C -1.7 °C 1014.1 hPa South 8.7 km/h 10.1 km/h 83 % 0.0 mm
10:27 1.0 °C -1.7 °C 1014.1 hPa South 5.5 km/h 10.8 km/h 82 % 0.0 mm
10:32 1.2 °C -1.6 °C 1014.1 hPa SSW 9.3 km/h 13.7 km/h 82 % 0.0 mm
10:37 1.4 °C -1.3 °C 1014.1 hPa South 6.1 km/h 13.7 km/h 82 % 0.0 mm
10:42 1.8 °C -1.0 °C 1014.1 hPa South 11.1 km/h 13.7 km/h 82 % 0.0 mm
10:47 1.9 °C -0.9 °C 1014.1 hPa South 6.9 km/h 11.1 km/h 81 % 0.0 mm
10:52 2.1 °C -1.1 °C 1014.1 hPa South 6.1 km/h 10.1 km/h 80 % 0.0 mm
10:57 2.3 °C -1.0 °C 1014.1 hPa South 9.7 km/h 10.1 km/h 79 % 0.0 mm
11:02 2.4 °C -0.8 °C 1014.1 hPa South 6.9 km/h 12.6 km/h 79 % 0.0 mm
11:07 2.4 °C -1.0 °C 1014.1 hPa South 11.9 km/h 18.0 km/h 78 % 0.0 mm
11:08 2.4 °C -1.0 °C 1014.1 hPa SSE 11.9 km/h 18.0 km/h 78 % 0.0 mm
11:13 2.3 °C -1.3 °C 1014.1 hPa South 12.2 km/h 18.0 km/h 77 % 0.0 mm
11:18 2.3 °C -1.4 °C 1014.1 hPa SSE 6.1 km/h 16.3 km/h 76 % 0.0 mm
11:23 2.3 °C -1.4 °C 1013.1 hPa SSW 4.7 km/h 16.9 km/h 77 % 0.0 mm
11:28 2.3 °C -1.4 °C 1013.1 hPa South 9.3 km/h 16.9 km/h 76 % 0.0 mm
11:33 2.3 °C -1.3 °C 1013.1 hPa SSE 6.9 km/h 13.7 km/h 77 % 0.0 mm
11:38 2.3 °C -1.4 °C 1014.1 hPa South 6.1 km/h 12.6 km/h 76 % 0.0 mm
11:43 2.3 °C -1.4 °C 1014.1 hPa SSE 6.1 km/h 12.6 km/h 76 % 0.0 mm
11:48 2.4 °C -1.2 °C 1014.1 hPa South 13.7 km/h 14.8 km/h 77 % 0.0 mm
11:53 2.6 °C -1.1 °C 1013.1 hPa SE 5.0 km/h 14.8 km/h 77 % 0.0 mm
11:58 2.7 °C -0.9 °C 1013.1 hPa South 8.7 km/h 15.4 km/h 77 % 0.0 mm
12:03 2.9 °C -0.7 °C 1013.1 hPa South 6.1 km/h 15.4 km/h 77 % 0.0 mm
12:08 3.2 °C -0.4 °C 1013.1 hPa SSE 9.0 km/h 13.7 km/h 77 % 0.0 mm
12:13 3.3 °C -0.3 °C 1013.1 hPa South 6.9 km/h 19.8 km/h 77 % 0.0 mm
12:18 3.6 °C -0.1 °C 1013.1 hPa SE 6.1 km/h 19.8 km/h 77 % 0.0 mm
12:23 3.6 °C -0.3 °C 1013.1 hPa SSW 8.7 km/h 16.9 km/h 76 % 0.0 mm
12:28 3.6 °C -0.3 °C 1013.1 hPa SSW 9.7 km/h 14.8 km/h 76 % 0.0 mm
12:33 3.6 °C -0.2 °C 1013.1 hPa South 6.9 km/h 16.3 km/h 76 % 0.0 mm
12:38 3.7 °C -0.1 °C 1013.1 hPa SSE 6.1 km/h 16.3 km/h 76 % 0.0 mm
12:43 3.9 °C 0.1 °C 1013.1 hPa SSE 6.9 km/h 14.0 km/h 76 % 0.0 mm
12:48 4.2 °C 0.3 °C 1013.1 hPa South 11.9 km/h 14.0 km/h 76 % 0.0 mm
12:53 4.6 °C 0.7 °C 1013.1 hPa South 9.7 km/h 17.2 km/h 76 % 0.0 mm
12:58 4.8 °C 0.9 °C 1013.1 hPa South 9.3 km/h 17.2 km/h 76 % 0.0 mm
13:03 4.9 °C 0.8 °C 1013.1 hPa South 5.5 km/h 16.3 km/h 75 % 0.0 mm
13:08 5.0 °C 0.7 °C 1012.1 hPa South 6.9 km/h 16.3 km/h 74 % 0.0 mm
13:13 4.9 °C 0.7 °C 1012.1 hPa SSW 5.5 km/h 15.8 km/h 74 % 0.0 mm
13:18 4.9 °C 0.7 °C 1012.1 hPa SSE 5.0 km/h 13.7 km/h 74 % 0.0 mm
13:23 4.9 °C 0.7 °C 1012.1 hPa SSE 6.1 km/h 12.6 km/h 74 % 0.0 mm
13:28 5.0 °C 0.7 °C 1012.1 hPa SSE 6.1 km/h 15.4 km/h 74 % 0.0 mm
13:33 5.0 °C 0.6 °C 1012.1 hPa SSE 12.6 km/h 15.4 km/h 73 % 0.0 mm
13:38 5.1 °C 0.7 °C 1013.1 hPa WSW 13.7 km/h 16.3 km/h 73 % 0.0 mm
13:43 5.3 °C 0.8 °C 1013.1 hPa South 5.0 km/h 17.7 km/h 73 % 0.0 mm
13:48 5.5 °C 1.1 °C 1013.1 hPa South 7.9 km/h 17.7 km/h 73 % 0.0 mm
13:53 5.6 °C 1.3 °C 1013.1 hPa South 12.2 km/h 12.2 km/h 74 % 0.0 mm
13:58 5.7 °C 1.2 °C 1013.1 hPa SSE 9.3 km/h 13.7 km/h 73 % 0.0 mm
14:01 5.7 °C 1.2 °C 1013.1 hPa South 9.0 km/h 14.0 km/h 73 % 0.0 mm
14:06 5.9 °C 1.4 °C 1013.1 hPa South 5.8 km/h 14.0 km/h 73 % 0.0 mm
14:11 6.0 °C 1.5 °C 1013.1 hPa South 8.7 km/h 13.0 km/h 73 % 0.0 mm
14:16 6.3 °C 1.8 °C 1013.1 hPa SSE 12.2 km/h 13.0 km/h 73 % 0.0 mm
14:21 6.6 °C 1.9 °C 1013.1 hPa South 6.9 km/h 19.8 km/h 72 % 0.0 mm
14:26 6.8 °C 2.2 °C 1013.1 hPa South 9.7 km/h 19.8 km/h 72 % 0.0 mm
14:31 6.8 °C 1.9 °C 1013.1 hPa SSW 6.9 km/h 17.7 km/h 71 % 0.0 mm
14:36 6.8 °C 1.9 °C 1013.1 hPa SSE 16.3 km/h 17.7 km/h 71 % 0.0 mm
14:41 6.7 °C 1.8 °C 1013.1 hPa South 15.1 km/h 16.3 km/h 71 % 0.0 mm
14:46 6.7 °C 1.8 °C 1013.1 hPa South 10.1 km/h 16.6 km/h 71 % 0.0 mm
14:51 6.7 °C 1.6 °C 1013.1 hPa South 10.5 km/h 16.6 km/h 70 % 0.0 mm
14:56 6.7 °C 1.6 °C 1013.1 hPa SSE 8.7 km/h 21.2 km/h 70 % 0.0 mm
15:01 6.6 °C 1.7 °C 1013.1 hPa South 4.7 km/h 21.2 km/h 71 % 0.0 mm
15:06 6.6 °C 1.7 °C 1013.1 hPa SSE 8.7 km/h 16.6 km/h 71 % 0.0 mm
15:11 6.4 °C 1.6 °C 1013.1 hPa SSE 5.5 km/h 16.6 km/h 71 % 0.0 mm
15:16 6.4 °C 1.6 °C 1013.1 hPa South 9.7 km/h 13.0 km/h 71 % 0.0 mm
15:21 6.4 °C 1.5 °C 1013.1 hPa SSE 10.5 km/h 13.0 km/h 71 % 0.0 mm
15:26 6.4 °C 1.5 °C 1013.1 hPa SSE 6.9 km/h 16.3 km/h 71 % 0.0 mm
15:31 6.3 °C 1.4 °C 1013.1 hPa SSE 9.7 km/h 16.3 km/h 71 % 0.0 mm
15:36 6.3 °C 1.4 °C 1013.1 hPa South 9.3 km/h 13.7 km/h 71 % 0.0 mm
15:41 6.3 °C 1.6 °C 1013.1 hPa SSE 10.5 km/h 13.7 km/h 72 % 0.0 mm
15:46 6.3 °C 1.6 °C 1013.1 hPa SSE 13.0 km/h 15.4 km/h 72 % 0.0 mm
15:51 6.2 °C 1.5 °C 1013.1 hPa SSE 12.6 km/h 16.6 km/h 72 % 0.0 mm
15:56 6.2 °C 1.5 °C 1013.1 hPa SSE 12.2 km/h 16.6 km/h 72 % 0.0 mm
16:01 6.2 °C 1.7 °C 1013.1 hPa SSE 11.9 km/h 15.1 km/h 73 % 0.0 mm
16:06 6.2 °C 1.7 °C 1013.1 hPa SSE 14.3 km/h 14.3 km/h 73 % 0.0 mm
16:11 6.3 °C 1.8 °C 1013.1 hPa SSE 9.7 km/h 14.3 km/h 73 % 0.0 mm
16:16 6.2 °C 1.7 °C 1013.1 hPa South 7.9 km/h 16.3 km/h 73 % 0.0 mm
16:21 6.2 °C 1.7 °C 1013.1 hPa South 11.9 km/h 16.3 km/h 73 % 0.0 mm
16:26 6.2 °C 1.7 °C 1013.1 hPa SSE 6.9 km/h 16.9 km/h 73 % 0.0 mm
16:31 6.3 °C 1.8 °C 1013.1 hPa SSE 11.1 km/h 19.5 km/h 73 % 0.0 mm
16:36 6.3 °C 1.8 °C 1013.1 hPa SSE 15.1 km/h 19.5 km/h 73 % 0.0 mm
16:41 6.3 °C 1.8 °C 1013.1 hPa SSE 10.1 km/h 20.9 km/h 73 % 0.0 mm
16:46 6.3 °C 1.8 °C 1013.1 hPa SSE 9.3 km/h 20.9 km/h 73 % 0.0 mm
16:51 6.3 °C 1.8 °C 1013.1 hPa SSE 10.5 km/h 17.2 km/h 73 % 0.0 mm
16:56 6.3 °C 1.8 °C 1013.1 hPa SSE 9.7 km/h 15.8 km/h 73 % 0.0 mm
17:01 6.2 °C 1.7 °C 1013.1 hPa SE 8.7 km/h 15.4 km/h 73 % 0.0 mm
17:06 6.1 °C 1.6 °C 1013.1 hPa SSE 10.5 km/h 12.6 km/h 73 % 0.0 mm
17:11 6.0 °C 1.5 °C 1013.1 hPa South 9.7 km/h 14.8 km/h 73 % 0.0 mm
17:16 6.0 °C 1.5 °C 1013.1 hPa ESE 8.7 km/h 14.8 km/h 73 % 0.0 mm
17:21 6.0 °C 1.7 °C 1013.1 hPa SSE 10.1 km/h 12.2 km/h 74 % 0.0 mm
17:26 6.0 °C 1.7 °C 1013.1 hPa SSE 7.6 km/h 11.9 km/h 74 % 0.0 mm
17:31 6.0 °C 1.7 °C 1013.1 hPa SSE 8.7 km/h 13.0 km/h 74 % 0.0 mm
17:36 6.0 °C 1.7 °C 1013.1 hPa SSE 9.3 km/h 13.0 km/h 74 % 0.0 mm
17:41 6.0 °C 1.7 °C 1013.1 hPa SSE 8.7 km/h 12.2 km/h 74 % 0.0 mm
17:46 6.0 °C 1.7 °C 1013.1 hPa SSE 8.7 km/h 12.2 km/h 74 % 0.0 mm
17:56 6.0 °C 1.7 °C 1013.1 hPa SSE 9.7 km/h 13.0 km/h 74 % 0.0 mm
18:01 6.0 °C 1.9 °C 1013.1 hPa SSE 9.0 km/h 11.9 km/h 75 % 0.0 mm
18:02 6.0 °C 1.9 °C 1013.1 hPa SSE 4.3 km/h 11.9 km/h 75 % 0.0 mm
18:07 6.1 °C 2.0 °C 1014.1 hPa SE 6.9 km/h 12.6 km/h 75 % 0.0 mm
18:12 6.1 °C 1.8 °C 1014.1 hPa South 6.1 km/h 12.6 km/h 74 % 0.0 mm
18:17 6.2 °C 1.9 °C 1014.1 hPa SE 7.9 km/h 10.5 km/h 74 % 0.0 mm
18:22 6.3 °C 2.0 °C 1013.1 hPa SSE 12.2 km/h 12.2 km/h 74 % 0.0 mm
18:27 6.3 °C 2.0 °C 1013.1 hPa SSE 6.9 km/h 17.2 km/h 74 % 0.0 mm
18:32 6.4 °C 2.1 °C 1013.1 hPa SSE 6.9 km/h 17.2 km/h 74 % 0.0 mm
18:37 6.4 °C 2.1 °C 1013.1 hPa SSE 10.5 km/h 14.0 km/h 74 % 0.0 mm
18:42 6.4 °C 2.2 °C 1013.1 hPa SSE 9.7 km/h 14.0 km/h 74 % 0.0 mm
18:47 6.4 °C 2.0 °C 1013.1 hPa SE 15.8 km/h 15.8 km/h 73 % 0.0 mm
18:52 6.6 °C 2.1 °C 1013.1 hPa SE 9.3 km/h 15.8 km/h 73 % 0.0 mm
18:57 6.6 °C 2.1 °C 1013.1 hPa SSE 6.1 km/h 14.0 km/h 73 % 0.0 mm
19:02 6.6 °C 2.1 °C 1013.1 hPa South 11.6 km/h 16.6 km/h 73 % 0.0 mm
19:07 6.7 °C 1.9 °C 1013.1 hPa SSE 6.1 km/h 16.6 km/h 72 % 0.0 mm
19:12 6.7 °C 1.9 °C 1013.1 hPa SSE 9.0 km/h 15.8 km/h 72 % 0.0 mm
19:17 6.8 °C 2.1 °C 1013.1 hPa SSE 11.6 km/h 13.0 km/h 72 % 0.0 mm
19:22 6.8 °C 2.1 °C 1013.1 hPa SSE 8.7 km/h 15.1 km/h 72 % 0.0 mm
19:27 6.8 °C 2.1 °C 1013.1 hPa SSE 11.1 km/h 15.1 km/h 72 % 0.0 mm
19:32 6.8 °C 1.9 °C 1013.1 hPa SSE 12.2 km/h 17.7 km/h 71 % 0.0 mm
19:37 6.8 °C 1.9 °C 1013.1 hPa South 5.0 km/h 17.7 km/h 71 % 0.0 mm
19:42 6.8 °C 1.9 °C 1013.1 hPa SSE 13.7 km/h 17.2 km/h 71 % 0.0 mm
19:47 6.8 °C 1.8 °C 1013.1 hPa SSE 9.3 km/h 17.2 km/h 70 % 0.0 mm
19:52 6.8 °C 1.8 °C 1013.1 hPa SSE 9.3 km/h 19.5 km/h 70 % 0.0 mm
19:57 6.8 °C 1.8 °C 1013.1 hPa SSE 14.3 km/h 19.5 km/h 70 % 0.0 mm
20:02 6.8 °C 1.8 °C 1013.1 hPa SSE 5.0 km/h 19.5 km/h 70 % 0.0 mm
20:07 6.8 °C 1.8 °C 1013.1 hPa SSE 8.7 km/h 15.4 km/h 70 % 0.0 mm
20:12 6.8 °C 1.7 °C 1013.1 hPa SSE 10.1 km/h 14.8 km/h 70 % 0.0 mm
20:17 6.8 °C 1.7 °C 1013.1 hPa SSE 6.1 km/h 14.8 km/h 70 % 0.0 mm
20:22 6.7 °C 1.6 °C 1013.1 hPa SSE 12.2 km/h 16.6 km/h 70 % 0.0 mm
20:27 6.7 °C 1.6 °C 1013.1 hPa SSE 7.6 km/h 16.6 km/h 70 % 0.0 mm
20:32 6.7 °C 1.6 °C 1013.1 hPa South 13.7 km/h 13.7 km/h 70 % 0.0 mm
20:37 6.6 °C 1.5 °C 1013.1 hPa SSE 11.6 km/h 14.0 km/h 70 % 0.0 mm
20:42 6.6 °C 1.5 °C 1013.1 hPa SE 6.9 km/h 14.0 km/h 70 % 0.0 mm
20:47 6.6 °C 1.5 °C 1013.1 hPa SE 9.0 km/h 14.0 km/h 70 % 0.0 mm
20:52 6.4 °C 1.4 °C 1013.1 hPa SE 4.7 km/h 13.7 km/h 70 % 0.0 mm
20:57 6.4 °C 1.3 °C 1013.1 hPa SSE 10.8 km/h 13.7 km/h 70 % 0.0 mm
20:58 6.4 °C 1.3 °C 1013.1 hPa SSE 10.1 km/h 16.9 km/h 70 % 0.0 mm
21:03 6.4 °C 1.3 °C 1013.1 hPa South 10.1 km/h 16.9 km/h 70 % 0.0 mm
21:08 6.4 °C 1.5 °C 1013.1 hPa SSW 10.5 km/h 15.4 km/h 71 % 0.0 mm
21:13 6.3 °C 1.4 °C 1013.1 hPa SSE 8.7 km/h 17.7 km/h 71 % 0.0 mm
21:18 6.3 °C 1.4 °C 1013.1 hPa South 6.9 km/h 17.7 km/h 71 % 0.0 mm
21:23 6.3 °C 1.4 °C 1013.1 hPa SSE 6.9 km/h 17.7 km/h 71 % 0.0 mm
21:28 6.3 °C 1.4 °C 1013.1 hPa SSE 7.9 km/h 16.3 km/h 71 % 0.0 mm
21:33 6.2 °C 1.3 °C 1013.1 hPa SSE 15.8 km/h 16.3 km/h 71 % 0.0 mm
21:38 6.3 °C 1.4 °C 1013.1 hPa SSE 13.0 km/h 16.3 km/h 71 % 0.0 mm
21:43 6.4 °C 1.5 °C 1013.1 hPa SSE 6.1 km/h 17.7 km/h 71 % 0.0 mm
21:48 6.4 °C 1.5 °C 1013.1 hPa SSE 9.3 km/h 17.7 km/h 71 % 0.0 mm
21:53 6.4 °C 1.5 °C 1013.1 hPa SE 9.3 km/h 16.3 km/h 71 % 0.0 mm
21:54 6.4 °C 1.5 °C 1013.1 hPa South 9.3 km/h 16.3 km/h 71 % 0.0 mm
21:59 6.4 °C 1.5 °C 1013.1 hPa South 4.7 km/h 13.7 km/h 71 % 0.0 mm
22:04 6.3 °C 1.4 °C 1013.1 hPa South 5.0 km/h 13.0 km/h 71 % 0.0 mm
22:09 6.2 °C 1.3 °C 1013.1 hPa SSE 5.5 km/h 13.0 km/h 71 % 0.0 mm
22:14 6.3 °C 1.4 °C 1013.1 hPa SE 9.7 km/h 12.6 km/h 71 % 0.0 mm
22:19 6.2 °C 1.3 °C 1013.1 hPa SSE 4.3 km/h 12.6 km/h 71 % 0.0 mm
22:24 6.2 °C 1.3 °C 1013.1 hPa East 4.0 km/h 9.7 km/h 71 % 0.0 mm
22:29 6.2 °C 1.3 °C 1013.1 hPa SSE 6.4 km/h 10.1 km/h 71 % 0.0 mm
22:34 6.1 °C 1.2 °C 1013.1 hPa South 9.3 km/h 11.9 km/h 71 % 0.0 mm
22:39 6.0 °C 1.1 °C 1012.1 hPa SSE 9.3 km/h 16.3 km/h 71 % 0.0 mm
22:44 6.0 °C 1.1 °C 1012.1 hPa SSE 4.3 km/h 16.3 km/h 71 % 0.0 mm
22:49 6.1 °C 1.2 °C 1012.1 hPa SSE 6.4 km/h 13.7 km/h 71 % 0.0 mm
22:54 6.1 °C 1.2 °C 1013.1 hPa SSE 13.0 km/h 15.4 km/h 71 % 0.0 mm
23:00 6.1 °C 1.2 °C 1013.1 hPa South 9.7 km/h 15.8 km/h 71 % 0.0 mm
23:05 6.1 °C 1.2 °C 1013.1 hPa SSE 13.7 km/h 16.6 km/h 71 % 0.0 mm
23:10 6.0 °C 1.1 °C 1013.1 hPa SSE 6.9 km/h 16.6 km/h 71 % 0.0 mm
23:15 6.0 °C 1.1 °C 1013.1 hPa SSE 8.7 km/h 16.6 km/h 71 % 0.0 mm
23:20 6.0 °C 1.1 °C 1013.1 hPa SSE 13.0 km/h 13.7 km/h 71 % 0.0 mm
23:25 6.0 °C 1.1 °C 1012.1 hPa South 6.1 km/h 13.7 km/h 71 % 0.0 mm
23:30 5.9 °C 1.0 °C 1012.1 hPa SSE 11.6 km/h 13.7 km/h 71 % 0.0 mm
23:35 5.9 °C 1.0 °C 1012.1 hPa SSE 5.0 km/h 13.7 km/h 71 % 0.0 mm
23:40 5.9 °C 1.0 °C 1013.1 hPa SSE 13.0 km/h 13.0 km/h 71 % 0.0 mm
23:46 5.9 °C 1.0 °C 1013.1 hPa SSE 6.1 km/h 13.0 km/h 71 % 0.0 mm
23:51 5.9 °C 1.0 °C 1013.1 hPa South 12.2 km/h 12.2 km/h 71 % 0.0 mm
23:54 6.0 °C 1.1 °C 1013.1 hPa SSE 6.9 km/h 17.7 km/h 71 % 0.0 mm
23:55 5.9 °C 1.0 °C 1013.1 hPa SE 10.1 km/h 17.7 km/h 71 % 0.0 mm
23:58 6.0 °C 1.1 °C 1013.1 hPa SSE 12.2 km/h 17.7 km/h 71 % 0.0 mm
Le Gheer Warneton
Courtoisie de Weather Underground - 2.25 mb

Mise a jour : 16-12-17 15:40:11
Généré par Cumulus 1.9.4 (1099)